Time;durP1;ratioP1;P1;durP2;ratioP2;P2;SDS_P1;SDS_P2;PMS_P1;PMS_P2;Temp;Humidity;BMP_temperature;BMP_pressure;BME280_temperature;BME280_humidity;BME280_pressure;Samples;Min_cycle;Max_cycle;Signal;HPM_P1;HPM_P2
2023/02/15 00:07:42;;;;;;;0.20;0.10;;;7.00;99.90;;;;;;21127647;28;20786;-67
2023/02/15 00:17:47;;;;;;;0.20;0.10;;;7.00;99.90;;;;;;21119578;28;20521;-67
2023/02/15 00:27:51;;;;;;;0.20;0.10;;;6.90;99.90;;;;;;21159277;28;20407;-68
2023/02/15 00:37:57;;;;;;;0.20;0.10;;;7.00;99.90;;;;;;21138625;28;20975;-67
2023/02/15 00:48:01;;;;;;;0.20;0.10;;;7.00;99.90;;;;;;21141322;28;20452;-67
2023/02/15 00:58:06;;;;;;;0.20;0.10;;;6.80;99.90;;;;;;21159520;28;20429;-68
2023/02/15 01:08:11;;;;;;;0.20;0.10;;;6.90;99.90;;;;;;21158404;28;20492;-68
2023/02/15 01:18:16;;;;;;;0.20;0.10;;;6.50;99.90;;;;;;21157476;28;20465;-69
2023/02/15 01:28:20;;;;;;;0.20;0.10;;;6.30;99.90;;;;;;21137344;28;20967;-69
2023/02/15 01:38:26;;;;;;;0.20;0.10;;;6.40;99.90;;;;;;21155992;28;20459;-67
2023/02/15 01:48:30;;;;;;;0.20;0.10;;;6.40;99.90;;;;;;21154793;28;20819;-67
2023/02/15 01:58:37;;;;;;;0.20;0.10;;;6.30;99.90;;;;;;21136220;28;20592;-67
2023/02/15 02:08:42;;;;;;;0.20;0.10;;;6.30;99.90;;;;;;21153854;28;20511;-68
2023/02/15 02:18:58;;;;;;;0.20;0.10;;;6.50;99.90;;;;;;21105740;28;20417;-67
2023/02/15 02:29:54;;;;;;;0.20;0.10;;;6.20;99.90;;;;;;21049046;28;20427;-67
2023/02/15 02:40:04;;;;;;;0.20;0.10;;;6.30;99.90;;;;;;21047396;28;20451;-67
2023/02/15 02:50:13;;;;;;;0.20;0.10;;;6.20;99.90;;;;;;21140089;28;20394;-67
2023/02/15 03:00:19;;;;;;;0.20;0.10;;;6.60;99.90;;;;;;21131104;28;20436;-67
2023/02/15 03:10:25;;;;;;;0.20;0.10;;;6.50;99.90;;;;;;21126510;28;20412;-66
2023/02/15 03:20:34;;;;;;;0.20;0.10;;;6.40;99.90;;;;;;21147742;28;20807;-66
2023/02/15 03:30:41;;;;;;;0.20;0.10;;;6.20;99.90;;;;;;21147473;28;20907;-66
2023/02/15 04:01:57;;;;;;;0.20;0.10;;;6.20;99.90;;;;;;21145243;28;20935;-68
2023/02/15 04:12:02;;;;;;;0.20;0.10;;;6.10;99.90;;;;;;21127365;28;20531;-68
2023/02/15 04:32:28;;;;;;;0.20;0.10;;;6.30;99.90;;;;;;21128423;28;20452;-68
2023/02/15 04:42:34;;;;;;;0.20;0.10;;;6.30;99.90;;;;;;21132519;28;20419;-68
2023/02/15 04:52:38;;;;;;;0.20;0.10;;;6.10;99.90;;;;;;21141304;28;20444;-67
2023/02/15 05:02:43;;;;;;;0.20;0.10;;;6.10;99.90;;;;;;21144013;28;20414;-68
2023/02/15 05:12:47;;;;;;;0.20;0.10;;;6.10;99.90;;;;;;21153136;28;20440;-68
2023/02/15 05:22:54;;;;;;;0.20;0.10;;;6.20;99.90;;;;;;21153369;28;20462;-67
2023/02/15 05:32:58;;;;;;;0.20;0.10;;;6.10;99.90;;;;;;21142115;28;20451;-67
2023/02/15 05:43:04;;;;;;;0.20;0.10;;;6.40;99.90;;;;;;21144577;28;21004;-67
2023/02/15 05:53:08;;;;;;;0.20;0.10;;;6.10;99.90;;;;;;21125913;28;20454;-67
2023/02/15 06:03:13;;;;;;;0.20;0.10;;;6.00;99.90;;;;;;21131192;28;20940;-68
2023/02/15 06:13:17;;;;;;;0.20;0.10;;;6.10;99.90;;;;;;21149932;28;20460;-68
2023/02/15 06:23:22;;;;;;;0.20;0.10;;;6.40;99.90;;;;;;21129893;28;20411;-67
2023/02/15 06:33:26;;;;;;;0.20;0.00;;;6.10;99.90;;;;;;21129355;28;20846;-66
2023/02/15 06:43:32;;;;;;;0.20;0.10;;;6.00;99.90;;;;;;21146324;28;20982;-67
2023/02/15 06:53:36;;;;;;;0.20;0.10;;;5.90;99.90;;;;;;21125554;28;20487;-69
2023/02/15 07:03:41;;;;;;;0.20;0.10;;;5.90;99.90;;;;;;21119824;28;20478;-69
2023/02/15 07:13:45;;;;;;;0.20;0.10;;;6.10;99.90;;;;;;21119461;28;20894;-68
2023/02/15 07:23:51;;;;;;;0.20;0.03;;;6.20;99.90;;;;;;21140181;28;20434;-68
2023/02/15 07:33:55;;;;;;;0.20;0.10;;;6.50;99.90;;;;;;21142273;28;20939;-69
2023/02/15 07:44:00;;;;;;;0.20;0.10;;;6.80;99.90;;;;;;21141013;28;20406;-68
2023/02/15 07:54:04;;;;;;;0.20;0.10;;;7.20;99.90;;;;;;21141128;28;20415;-69
2023/02/15 08:04:10;;;;;;;0.20;0.10;;;7.60;99.90;;;;;;21106085;28;20399;-68
2023/02/15 08:14:16;;;;;;;0.20;0.10;;;8.10;99.90;;;;;;21121349;28;20391;-68
2023/02/15 08:24:24;;;;;;;0.20;0.10;;;8.60;99.90;;;;;;21122293;28;20410;-69
2023/02/15 08:34:27;;;;;;;0.20;0.10;;;9.20;99.90;;;;;;21126288;28;20451;-68
2023/02/15 08:44:33;;;;;;;0.20;0.10;;;10.40;99.90;;;;;;21138506;28;20411;-69
2023/02/15 08:54:37;;;;;;;0.20;0.10;;;11.20;99.90;;;;;;21137320;28;20394;-69
2023/02/15 09:04:43;;;;;;;0.20;0.10;;;11.80;99.90;;;;;;21154434;28;20417;-68
2023/02/15 09:14:46;;;;;;;0.20;0.10;;;12.00;99.90;;;;;;21120972;28;20484;-64
2023/02/15 09:24:51;;;;;;;0.20;0.00;;;11.90;99.90;;;;;;21103370;28;20406;-68
2023/02/15 09:34:55;;;;;;;0.20;0.00;;;11.90;99.90;;;;;;21136124;28;20455;-68
2023/02/15 09:45:21;;;;;;;0.20;0.03;;;12.20;99.90;;;;;;21133972;28;20876;-66
2023/02/15 09:55:45;;;;;;;0.20;0.10;;;12.20;99.90;;;;;;21133416;28;20561;-68
2023/02/15 10:06:06;;;;;;;0.20;0.10;;;12.50;99.90;;;;;;21131245;28;20749;-68
2023/02/15 10:16:24;;;;;;;0.30;0.30;;;12.50;99.90;;;;;;21144937;28;20414;-65
2023/02/15 10:26:37;;;;;;;0.20;0.10;;;12.50;99.90;;;;;;21145273;28;20498;-68
2023/02/15 10:36:58;;;;;;;0.20;0.10;;;12.90;99.90;;;;;;21146686;28;20457;-67
2023/02/15 10:47:32;;;;;;;0.20;0.10;;;13.00;99.90;;;;;;21146430;28;20521;-68
2023/02/15 10:57:47;;;;;;;0.20;0.10;;;13.10;99.90;;;;;;21145734;28;20409;-67
2023/02/15 11:07:59;;;;;;;0.20;0.10;;;14.00;99.90;;;;;;21128266;28;20402;-67
2023/02/15 11:18:10;;;;;;;0.20;0.10;;;15.20;99.90;;;;;;21118974;28;20531;-69
2023/02/15 11:28:23;;;;;;;0.20;0.10;;;15.00;99.90;;;;;;21143166;28;20409;-68
2023/02/15 11:38:30;;;;;;;0.20;0.10;;;15.90;99.90;;;;;;21139883;28;20776;-70
2023/02/15 11:48:35;;;;;;;0.20;0.00;;;17.00;99.90;;;;;;21122939;28;20399;-67
2023/02/15 11:58:45;;;;;;;0.20;0.00;;;18.20;99.90;;;;;;21119939;28;20889;-67
2023/02/15 12:09:03;;;;;;;0.20;0.10;;;17.70;99.90;;;;;;21127044;28;20410;-68
2023/02/15 12:19:22;;;;;;;0.20;0.10;;;18.20;99.90;;;;;;21155677;28;20451;-68
2023/02/15 12:29:30;;;;;;;0.20;0.10;;;18.20;99.90;;;;;;21139424;28;20402;-68
2023/02/15 12:39:34;;;;;;;0.20;0.10;;;18.40;99.90;;;;;;21137791;28;20498;-69
2023/02/15 12:49:40;;;;;;;0.20;0.10;;;18.40;99.90;;;;;;21153249;28;20403;-68
2023/02/15 12:59:51;;;;;;;0.20;0.10;;;18.50;99.90;;;;;;21070574;28;20396;-68
2023/02/15 13:09:58;;;;;;;0.20;0.00;;;19.70;99.90;;;;;;21086460;28;20756;-67
2023/02/15 13:20:09;;;;;;;0.20;0.00;;;20.00;99.90;;;;;;21068798;28;20445;-68
2023/02/15 13:30:25;;;;;;;0.20;0.00;;;20.50;99.90;;;;;;21051651;28;20428;-67
2023/02/15 13:40:36;;;;;;;0.20;0.00;;;19.90;99.90;;;;;;21047538;28;20416;-69
2023/02/15 13:51:01;;;;;;;0.20;0.00;;;20.40;99.90;;;;;;21078662;28;20820;-67
2023/02/15 14:01:11;;;;;;;0.20;0.03;;;20.50;99.90;;;;;;21111610;28;20463;-68
2023/02/15 14:11:25;;;;;;;0.20;0.00;;;20.00;99.90;;;;;;21112418;28;20402;-70
2023/02/15 14:21:32;;;;;;;0.20;0.00;;;19.80;99.90;;;;;;21130368;28;20411;-69
2023/02/15 14:31:42;;;;;;;0.20;0.00;;;20.90;99.90;;;;;;21126586;28;20495;-69
2023/02/15 14:41:53;;;;;;;0.20;0.00;;;22.10;99.90;;;;;;21146237;28;20398;-67
2023/02/15 14:52:06;;;;;;;0.20;0.00;;;21.90;99.90;;;;;;21118558;28;20405;-68
2023/02/15 15:02:16;;;;;;;0.20;0.10;;;21.50;99.90;;;;;;21122418;28;20399;-68
2023/02/15 15:12:41;;;;;;;0.20;0.10;;;20.90;99.90;;;;;;21119811;28;20405;-67
2023/02/15 15:22:48;;;;;;;0.20;0.00;;;21.50;99.90;;;;;;21118819;28;20415;-69
2023/02/15 15:33:00;;;;;;;0.20;0.10;;;21.00;99.90;;;;;;21119054;28;20398;-68
2023/02/15 15:43:36;;;;;;;0.20;0.00;;;19.10;99.90;;;;;;21135343;28;20410;-67
2023/02/15 15:53:48;;;;;;;0.20;0.10;;;17.80;99.90;;;;;;21133106;28;20387;-67
2023/02/15 16:03:53;;;;;;;0.20;0.10;;;17.30;99.90;;;;;;21118590;28;20449;-67
2023/02/15 16:13:59;;;;;;;0.20;0.10;;;16.90;99.90;;;;;;21099270;28;20410;-68
2023/02/15 16:24:27;;;;;;;0.20;0.10;;;16.80;99.90;;;;;;21138585;28;20418;-69
2023/02/15 16:34:33;;;;;;;0.20;0.00;;;15.80;99.90;;;;;;21123649;28;20391;-68
2023/02/15 16:44:37;;;;;;;0.20;0.10;;;14.90;99.90;;;;;;21121150;28;20402;-68
2023/02/15 16:54:43;;;;;;;0.20;0.10;;;14.60;99.90;;;;;;21122021;28;20998;-69
2023/02/15 17:05:03;;;;;;;0.20;0.10;;;14.00;99.90;;;;;;21131760;28;20410;-69
2023/02/15 17:15:25;;;;;;;0.20;0.00;;;13.80;99.90;;;;;;21107451;28;20400;-68
2023/02/15 17:25:37;;;;;;;0.20;0.10;;;13.30;99.90;;;;;;21122924;28;20893;-67
2023/02/15 17:35:43;;;;;;;0.20;0.10;;;13.00;99.90;;;;;;21108370;28;20492;-69
2023/02/15 17:45:50;;;;;;;0.20;0.10;;;12.80;99.90;;;;;;21073308;28;20495;-69
2023/02/15 17:55:55;;;;;;;0.20;0.00;;;12.20;99.90;;;;;;21091353;28;20415;-68
2023/02/15 18:16:25;;;;;;;0.20;0.10;;;11.20;99.90;;;;;;21131712;28;20856;-70
2023/02/15 18:26:29;;;;;;;0.20;0.00;;;11.10;99.90;;;;;;21148979;28;20850;-68
2023/02/15 18:36:44;;;;;;;0.20;0.10;;;11.10;99.90;;;;;;21129210;28;20438;-68
2023/02/15 18:46:48;;;;;;;0.20;0.00;;;10.80;99.90;;;;;;21129069;28;20496;-70
2023/02/15 18:56:57;;;;;;;0.20;0.03;;;10.70;99.90;;;;;;21110669;28;20405;-68
2023/02/15 19:07:01;;;;;;;0.20;0.10;;;10.60;99.90;;;;;;21127456;28;20407;-68
2023/02/15 19:17:15;;;;;;;0.20;0.10;;;10.30;99.90;;;;;;21109529;28;20395;-70
2023/02/15 19:27:23;;;;;;;0.20;0.10;;;10.30;99.90;;;;;;21143525;28;20799;-69
2023/02/15 19:37:34;;;;;;;0.20;0.10;;;10.00;99.90;;;;;;21142970;28;20403;-68
2023/02/15 19:47:38;;;;;;;0.20;0.10;;;9.90;99.90;;;;;;21124165;28;20405;-69
2023/02/15 19:57:44;;;;;;;0.20;0.10;;;9.90;99.90;;;;;;21144289;28;20395;-69
2023/02/15 20:07:51;;;;;;;0.20;0.10;;;9.80;99.90;;;;;;21124594;28;20403;-68
2023/02/15 20:17:57;;;;;;;0.20;0.10;;;9.70;99.90;;;;;;21124513;28;20379;-68
2023/02/15 20:28:02;;;;;;;0.20;0.10;;;9.40;99.90;;;;;;21145434;28;20418;-68
2023/02/15 20:38:11;;;;;;;0.20;0.10;;;9.50;99.90;;;;;;21123365;28;20414;-69
2023/02/15 20:48:15;;;;;;;0.20;0.10;;;9.50;99.90;;;;;;21122431;28;20434;-73
2023/02/15 20:58:25;;;;;;;0.20;0.10;;;9.50;99.90;;;;;;21122976;28;20855;-72
2023/02/15 21:08:31;;;;;;;0.20;0.10;;;9.50;99.90;;;;;;21138600;28;20410;-69
2023/02/15 21:18:39;;;;;;;0.20;0.10;;;9.60;99.90;;;;;;21154738;28;20877;-68
2023/02/15 21:28:43;;;;;;;0.20;0.10;;;9.60;99.90;;;;;;21118418;28;20499;-69
2023/02/15 21:38:49;;;;;;;0.20;0.10;;;9.60;99.90;;;;;;21149314;28;20403;-69
2023/02/15 21:48:57;;;;;;;0.20;0.00;;;9.40;99.90;;;;;;21134870;28;20433;-69
2023/02/15 21:59:10;;;;;;;0.20;0.10;;;9.50;99.90;;;;;;21133934;28;20611;-69
2023/02/15 22:09:16;;;;;;;0.20;0.07;;;9.30;99.90;;;;;;21151850;28;20418;-69
2023/02/15 22:19:21;;;;;;;0.20;0.10;;;9.20;99.90;;;;;;21152432;28;20474;-68
2023/02/15 22:29:25;;;;;;;0.20;0.10;;;9.20;99.90;;;;;;21133318;28;20425;-69
2023/02/15 22:39:31;;;;;;;0.20;0.00;;;9.20;99.90;;;;;;21151131;28;20398;-68
2023/02/15 22:49:35;;;;;;;0.20;0.10;;;8.90;99.90;;;;;;21149967;28;20411;-68
2023/02/15 22:59:41;;;;;;;0.20;0.10;;;9.00;99.90;;;;;;21149457;28;20434;-69
2023/02/15 23:09:45;;;;;;;0.20;0.10;;;9.00;99.90;;;;;;21148994;28;20414;-68
2023/02/15 23:19:50;;;;;;;0.20;0.10;;;8.80;99.90;;;;;;21130033;28;20576;-68
2023/02/15 23:29:54;;;;;;;0.20;0.10;;;8.60;99.90;;;;;;21147024;28;20734;-69
2023/02/15 23:50:22;;;;;;;0.20;0.08;;;8.70;99.90;;;;;;21117466;28;20402;-68
